Great Scott, Minnesota
Current Conditions -  °F | °C
As of 12:05 PM on Monday 24 Nov 2014 (Local Time) from KHIB Reporting Station
Overcast Overcast  
Wind Chill:   Ceiling: 1500
Heat Index: 21°   Visibility: 10mi
Dew Point: 14°   Wind: 21mph
Humidity: 74%   Direction: 350°N
Pressure: 29.44"   Gusts: 31mph
Location:  47.4951°N, 92.7779°W
Report Text: KHIB 241805Z AUTO 35018G27KT 10SM OVC015 M06/M10 A2944 RMK AO2 PK WND 35027/1756 T10611100
Loading
Personal Weather Stations






























Interactive Weather Map New forecast layout! Learn more

10-Day Weather Forecast

Advertisements
Track Severe Weather on mobile